Time;durP1;ratioP1;P1;durP2;ratioP2;P2;SDS_P1;SDS_P2;PMS_P1;PMS_P2;Temp;Humidity;BMP_temperature;BMP_pressure;BME280_temperature;BME280_humidity;BME280_pressure;Samples;Min_cycle;Max_cycle;Signal;HPM_P1;HPM_P2
2022/07/28 00:00:14;;;;;;;0.88;0.10;;;;;;;13.84;100.00;101097.75;5085767;28;20134;-46
2022/07/28 00:02:39;;;;;;;0.10;0.00;;;;;;;13.81;100.00;101106.09;5085000;28;20035;-50
2022/07/28 00:05:05;;;;;;;0.95;0.28;;;;;;;13.78;100.00;101101.16;5083866;28;20447;-45
2022/07/28 00:07:31;;;;;;;0.20;0.08;;;;;;;13.69;100.00;101104.00;5085919;28;20032;-47
2022/07/28 00:09:56;;;;;;;0.95;0.10;;;;;;;13.65;100.00;101101.91;5074606;28;20534;-49
2022/07/28 00:12:21;;;;;;;2.35;0.10;;;;;;;13.62;100.00;101108.47;5081019;28;20051;-46
2022/07/28 00:14:47;;;;;;;5.15;0.20;;;;;;;13.59;100.00;101106.19;5083271;28;20024;-46
2022/07/28 00:17:12;;;;;;;0.90;0.10;;;;;;;13.58;100.00;101107.22;5084415;28;20499;-46
2022/07/28 00:19:37;;;;;;;0.47;0.10;;;;;;;13.55;100.00;101102.25;5081993;28;20081;-47
2022/07/28 00:22:03;;;;;;;1.40;0.68;;;;;;;13.55;100.00;101096.13;5076584;28;20093;-50
2022/07/28 00:24:30;;;;;;;1.20;0.10;;;;;;;13.49;100.00;101098.53;5079649;28;20086;-48
2022/07/28 00:26:56;;;;;;;0.10;0.00;;;;;;;13.46;100.00;101101.59;5080713;28;20051;-46
2022/07/28 00:29:21;;;;;;;2.38;0.75;;;;;;;13.45;100.00;101091.97;5087723;28;20047;-48
2022/07/28 00:31:46;;;;;;;1.95;0.28;;;;;;;13.44;100.00;101094.81;5084139;28;20028;-50
2022/07/28 00:34:12;;;;;;;5.68;0.10;;;;;;;13.40;100.00;101093.56;5083298;28;20081;-49
2022/07/28 00:36:37;;;;;;;3.35;0.20;;;;;;;13.35;100.00;101096.00;5078767;28;20036;-45
2022/07/28 00:39:03;;;;;;;0.47;0.40;;;;;;;13.31;100.00;101100.88;5084346;28;20027;-45
2022/07/28 00:41:29;;;;;;;0.17;0.10;;;;;;;13.27;100.00;101100.47;5081487;28;20033;-48
2022/07/28 00:43:54;;;;;;;0.17;0.00;;;;;;;13.24;100.00;101097.31;5084077;28;20026;-46
2022/07/28 00:46:21;;;;;;;0.85;0.00;;;;;;;13.20;100.00;101091.56;5081056;28;20032;-46
2022/07/28 00:48:53;;;;;;;0.82;0.20;;;;;;;13.23;100.00;101093.81;5085685;28;20106;-46
2022/07/28 00:51:22;;;;;;;;;;;;;;;13.33;100.00;101093.53;5080886;28;20036;-49
2022/07/28 00:53:48;;;;;;;1.55;0.22;;;;;;;13.38;100.00;101091.09;5078382;28;19927;-49
2022/07/28 00:56:14;;;;;;;0.10;0.00;;;;;;;13.39;100.00;101086.59;5080901;28;20036;-48
2022/07/28 00:58:40;;;;;;;0.17;0.00;;;;;;;13.39;100.00;101087.41;5082328;28;20035;-47
2022/07/28 01:01:08;;;;;;;0.45;0.10;;;;;;;13.36;100.00;101087.00;5082694;28;20032;-46
2022/07/28 01:03:37;;;;;;;0.20;0.00;;;;;;;13.31;100.00;101082.25;5083975;28;20097;-47
2022/07/28 01:06:13;;;;;;;1.08;0.10;;;;;;;13.29;100.00;101085.13;5083772;28;20028;-50
2022/07/28 01:09:10;;;;;;;0.10;0.10;;;;;;;13.30;100.00;101091.25;5079175;28;20068;-47
2022/07/28 01:11:50;;;;;;;0.40;0.10;;;;;;;13.29;100.00;101085.13;5070959;28;20032;-48
2022/07/28 01:14:42;;;;;;;0.30;0.10;;;;;;;13.30;100.00;101078.75;5079398;28;20050;-47
2022/07/28 01:17:07;;;;;;;1.10;0.25;;;;;;;13.32;100.00;101078.56;5082182;28;20505;-49
2022/07/28 01:19:57;;;;;;;2.45;0.30;;;;;;;13.34;100.00;101083.69;5077710;28;20111;-47
2022/07/28 01:22:28;;;;;;;0.00;0.00;;;;;;;13.36;100.00;101081.66;5085545;28;20038;-46
2022/07/28 01:25:23;;;;;;;2.42;0.43;;;;;;;13.40;100.00;101081.09;5082272;28;20036;-45
2022/07/28 01:28:06;;;;;;;0.08;0.08;;;;;;;13.48;100.00;101077.44;5085002;28;20032;-47
2022/07/28 01:30:40;;;;;;;1.20;0.00;;;;;;;13.56;100.00;101082.63;5084032;28;20031;-45
2022/07/28 01:33:16;;;;;;;3.20;0.30;;;;;;;13.62;100.00;101073.81;5081888;28;20395;-47
2022/07/28 01:35:46;;;;;;;1.00;0.20;;;;;;;13.60;100.00;101065.19;5075844;28;20044;-47
2022/07/28 01:38:13;;;;;;;0.45;0.05;;;;;;;13.55;100.00;101059.63;5078230;28;20488;-48
2022/07/28 01:40:41;;;;;;;1.13;0.05;;;;;;;13.48;100.00;101070.28;5085402;28;21956;-49
2022/07/28 01:43:10;;;;;;;0.75;0.08;;;;;;;13.48;100.00;101074.78;5083380;28;20035;-48
2022/07/28 01:45:38;;;;;;;2.28;0.20;;;;;;;13.40;100.00;101065.09;5072674;28;20032;-46
2022/07/28 01:48:05;;;;;;;2.95;0.32;;;;;;;13.31;100.00;101064.41;5075314;28;20395;-49
2022/07/28 01:50:33;;;;;;;0.40;0.00;;;;;;;13.20;100.00;101070.25;5074768;28;20059;-46
2022/07/28 01:52:59;;;;;;;0.50;0.00;;;;;;;13.07;100.00;101072.81;5083295;28;20028;-45
2022/07/28 01:55:25;;;;;;;0.32;0.32;;;;;;;12.95;100.00;101071.69;5086158;28;20116;-45
2022/07/28 01:57:54;;;;;;;0.68;0.10;;;;;;;12.82;100.00;101067.91;5073780;28;20062;-46
2022/07/28 02:00:21;;;;;;;2.13;0.05;;;;;;;12.74;100.00;101067.22;5082180;28;20103;-48
2022/07/28 02:02:49;;;;;;;0.22;0.20;;;;;;;12.66;100.00;101066.31;5086109;28;20046;-47
2022/07/28 02:05:18;;;;;;;7.30;0.57;;;;;;;12.63;100.00;101066.72;5084003;28;20032;-47
2022/07/28 02:07:46;;;;;;;2.40;0.22;;;;;;;12.62;100.00;101065.06;5076624;28;20147;-48
2022/07/28 02:10:15;;;;;;;0.20;0.10;;;;;;;12.63;100.00;101065.88;5081914;28;20512;-45
2022/07/28 02:12:43;;;;;;;0.88;0.00;;;;;;;12.59;100.00;101062.75;5083476;28;20040;-46
2022/07/28 02:15:11;;;;;;;0.43;0.10;;;;;;;12.56;100.00;101067.66;5082104;28;20427;-45
2022/07/28 02:17:40;;;;;;;0.28;0.17;;;;;;;12.55;100.00;101064.19;5081982;28;20024;-45
2022/07/28 02:20:09;;;;;;;5.60;0.50;;;;;;;12.52;100.00;101066.38;5078598;28;20031;-47
2022/07/28 02:22:36;;;;;;;1.33;0.00;;;;;;;12.51;100.00;101059.41;5081886;28;20069;-49
2022/07/28 02:25:03;;;;;;;0.25;0.10;;;;;;;12.51;100.00;101064.75;5078098;28;20036;-46
2022/07/28 02:27:45;;;;;;;0.30;0.00;;;;;;;12.52;100.00;101061.91;5078532;28;20028;-46
2022/07/28 02:30:16;;;;;;;0.40;0.10;;;;;;;12.51;100.00;101059.41;5081104;28;20052;-48
2022/07/28 02:32:57;;;;;;;0.15;0.10;;;;;;;12.48;100.00;101055.31;5082293;28;20516;-50
2022/07/28 02:35:36;;;;;;;0.75;0.10;;;;;;;12.43;100.00;101050.53;5079743;28;20127;-45
2022/07/28 02:38:13;;;;;;;0.22;0.22;;;;;;;12.39;100.00;101061.75;5085089;28;20115;-47
2022/07/28 02:40:41;;;;;;;1.65;0.10;;;;;;;12.35;100.00;101060.50;5086688;28;20032;-45
2022/07/28 02:43:18;;;;;;;0.30;0.08;;;;;;;12.34;100.00;101057.00;5085038;28;20020;-47
2022/07/28 02:45:50;;;;;;;0.45;0.15;;;;;;;12.33;100.00;101055.34;5082441;28;20060;-45
2022/07/28 02:48:20;;;;;;;0.10;0.10;;;;;;;12.29;100.00;101059.41;5078149;28;20024;-47
2022/07/28 02:50:46;;;;;;;1.10;0.10;;;;;;;12.23;100.00;101052.97;5083420;28;20507;-45
2022/07/28 02:53:14;;;;;;;0.52;0.13;;;;;;;12.17;100.00;101058.25;5081740;28;20043;-47
2022/07/28 02:55:40;;;;;;;0.40;0.20;;;;;;;12.15;100.00;101055.75;5084061;28;20137;-47
2022/07/28 02:58:07;;;;;;;1.35;0.20;;;;;;;12.15;100.00;101052.28;5085432;28;20024;-45
2022/07/28 03:00:34;;;;;;;1.08;0.10;;;;;;;12.16;100.00;101059.28;5083240;28;20361;-45
2022/07/28 03:03:00;;;;;;;1.45;0.50;;;;;;;12.15;100.00;101049.63;5087845;28;20032;-46
2022/07/28 03:05:27;;;;;;;2.17;0.15;;;;;;;12.13;100.00;101052.50;5086299;28;20031;-50
2022/07/28 03:07:54;;;;;;;0.20;0.15;;;;;;;12.14;100.00;101055.97;5089538;28;20040;-46
2022/07/28 03:10:25;;;;;;;0.65;0.13;;;;;;;12.14;100.00;101051.47;5084434;28;20054;-45
2022/07/28 03:12:52;;;;;;;0.10;0.10;;;;;;;12.14;100.00;101050.66;5085176;28;20066;-46
2022/07/28 03:15:17;;;;;;;0.30;0.08;;;;;;;12.15;100.00;101052.28;5081593;28;20032;-48
2022/07/28 03:17:43;;;;;;;5.13;0.30;;;;;;;12.13;100.00;101057.81;5088428;28;20106;-47
2022/07/28 03:20:09;;;;;;;1.13;0.80;;;;;;;12.13;100.00;101049.84;5084656;28;20056;-48
2022/07/28 03:22:35;;;;;;;1.95;0.10;;;;;;;12.13;100.00;101046.31;5089058;28;20081;-47
2022/07/28 03:25:05;;;;;;;1.77;0.03;;;;;;;12.18;100.00;101058.06;5088226;28;20023;-46
2022/07/28 03:27:38;;;;;;;0.13;0.00;;;;;;;12.20;100.00;101053.38;5079170;28;20040;-46
2022/07/28 03:30:06;;;;;;;1.27;0.20;;;;;;;12.21;100.00;101051.56;5085693;28;20360;-48
2022/07/28 03:32:37;;;;;;;0.10;0.10;;;;;;;12.19;100.00;101049.06;5085635;28;20456;-47
2022/07/28 03:35:04;;;;;;;0.73;0.10;;;;;;;12.15;100.00;101049.63;5083752;28;20038;-49
2022/07/28 03:37:53;;;;;;;0.45;0.20;;;;;;;12.14;100.00;101056.78;5083834;28;20800;-49
2022/07/28 03:40:19;;;;;;;0.00;0.00;;;;;;;12.12;100.00;101057.97;5083169;28;20028;-45
2022/07/28 03:42:47;;;;;;;0.20;0.00;;;;;;;12.10;100.00;101057.34;5084210;28;20128;-46
2022/07/28 03:45:14;;;;;;;0.10;0.00;;;;;;;12.09;100.00;101059.19;5087302;28;20036;-47
2022/07/28 03:47:51;;;;;;;0.85;0.28;;;;;;;12.11;100.00;101059.81;5088147;28;20023;-48
2022/07/28 03:50:20;;;;;;;0.52;0.52;;;;;;;12.13;100.00;101059.63;5083969;28;20038;-47
2022/07/28 03:52:45;;;;;;;0.65;0.20;;;;;;;12.13;100.00;101052.50;5077074;28;20399;-45
2022/07/28 03:55:12;;;;;;;0.77;0.10;;;;;;;12.11;100.00;101059.00;5080534;28;20139;-47
2022/07/28 03:57:37;;;;;;;0.22;0.10;;;;;;;12.08;100.00;101062.00;5087367;28;20020;-47
2022/07/28 04:00:03;;;;;;;1.90;0.10;;;;;;;12.02;100.00;101060.94;5083025;28;20465;-45
2022/07/28 04:02:28;;;;;;;9.32;0.73;;;;;;;11.99;100.00;101058.66;5087576;28;20508;-47
2022/07/28 04:04:54;;;;;;;0.43;0.43;;;;;;;11.95;100.00;101058.22;5087188;28;22104;-46
2022/07/28 04:07:19;;;;;;;0.20;0.00;;;;;;;11.94;100.00;101061.03;5088332;28;20032;-45
2022/07/28 04:09:44;;;;;;;0.75;0.20;;;;;;;11.93;100.00;101057.56;5084588;28;20063;-46
2022/07/28 04:12:10;;;;;;;0.82;0.55;;;;;;;11.91;100.00;101054.25;5085949;28;20028;-49
2022/07/28 04:14:35;;;;;;;2.63;0.20;;;;;;;11.89;100.00;101047.47;5085959;28;20082;-50
2022/07/28 04:17:01;;;;;;;1.48;0.35;;;;;;;11.89;100.00;101052.81;5088454;28;21597;-47
2022/07/28 04:19:26;;;;;;;0.30;0.00;;;;;;;11.90;100.00;101051.78;5088770;28;20032;-47
2022/07/28 04:21:51;;;;;;;0.10;0.10;;;;;;;11.90;100.00;101047.31;5076640;28;20476;-47
2022/07/28 04:24:17;;;;;;;1.40;0.57;;;;;;;11.89;100.00;101058.94;5088221;28;20055;-46
2022/07/28 04:26:42;;;;;;;0.30;0.15;;;;;;;11.88;100.00;101054.63;5083589;28;20035;-48
2022/07/28 04:29:07;;;;;;;0.65;0.17;;;;;;;11.88;100.00;101044.00;5085879;28;20385;-47
2022/07/28 04:31:33;;;;;;;0.63;0.28;;;;;;;11.87;100.00;101049.50;5087019;28;20031;-49
2022/07/28 04:33:59;;;;;;;0.10;0.03;;;;;;;11.87;100.00;101052.16;5085171;28;20032;-50
2022/07/28 04:36:24;;;;;;;0.50;0.13;;;;;;;11.87;100.00;101041.53;5082607;28;20028;-48
2022/07/28 04:38:50;;;;;;;4.18;0.20;;;;;;;11.86;100.00;101048.69;5084881;28;20047;-48
2022/07/28 04:41:15;;;;;;;1.75;0.20;;;;;;;11.83;100.00;101054.34;5081430;28;20107;-49
2022/07/28 04:43:41;;;;;;;0.35;0.15;;;;;;;11.83;100.00;101051.69;5087371;28;20036;-47
2022/07/28 04:46:06;;;;;;;0.10;0.10;;;;;;;11.83;100.00;101058.84;5082131;28;20028;-51
2022/07/28 04:48:32;;;;;;;2.30;0.30;;;;;;;11.86;100.00;101054.00;5089297;28;20042;-46
2022/07/28 04:50:57;;;;;;;1.25;0.10;;;;;;;11.88;100.00;101049.31;5085328;28;20036;-45
2022/07/28 04:53:23;;;;;;;0.80;0.13;;;;;;;11.91;100.00;101051.59;5084660;28;20059;-47
2022/07/28 04:55:50;;;;;;;1.15;0.10;;;;;;;11.94;100.00;101056.53;5084415;28;20404;-49
2022/07/28 04:58:17;;;;;;;0.77;0.10;;;;;;;11.98;100.00;101054.34;5084841;28;20085;-47
2022/07/28 05:00:43;;;;;;;0.10;0.10;;;;;;;12.01;100.00;101059.28;5084196;28;20024;-50
2022/07/28 05:03:08;;;;;;;0.93;0.00;;;;;;;12.05;100.00;101057.88;5083376;28;20122;-49
2022/07/28 05:05:33;;;;;;;1.52;0.20;;;;;;;12.11;100.00;101061.66;5082724;28;20040;-48
2022/07/28 05:07:59;;;;;;;4.43;0.30;;;;;;;12.13;100.00;101065.78;5086387;28;20020;-48
2022/07/28 05:10:24;;;;;;;0.85;0.00;;;;;;;12.18;100.00;101063.38;5077105;28;20036;-48
2022/07/28 05:12:51;;;;;;;1.63;0.10;;;;;;;12.21;100.00;101057.69;5082829;28;20047;-46
2022/07/28 05:15:16;;;;;;;0.45;0.20;;;;;;;12.28;100.00;101055.09;5078459;28;20107;-48
2022/07/28 05:17:42;;;;;;;0.90;0.30;;;;;;;12.36;100.00;101060.28;5083021;28;20107;-48
2022/07/28 05:20:07;;;;;;;0.32;0.30;;;;;;;12.46;100.00;101049.34;5078840;28;20383;-48
2022/07/28 05:22:44;;;;;;;1.00;0.47;;;;;;;12.57;100.00;101056.84;5085993;28;20158;-47
2022/07/28 05:25:17;;;;;;;3.05;0.20;;;;;;;12.67;100.00;101056.50;5077950;28;20039;-49
2022/07/28 05:27:44;;;;;;;0.95;0.40;;;;;;;12.74;100.00;101053.91;5081445;28;20077;-46
2022/07/28 05:30:10;;;;;;;2.97;1.00;;;;;;;12.82;100.00;101057.25;5085645;28;20028;-47
2022/07/28 05:32:35;;;;;;;0.25;0.10;;;;;;;12.93;100.00;101055.91;5082257;28;20455;-48
2022/07/28 05:35:00;;;;;;;1.55;0.03;;;;;;;12.98;100.00;101058.81;5081347;28;20024;-45
2022/07/28 05:37:26;;;;;;;2.10;0.00;;;;;;;13.03;100.00;101071.53;5084366;28;20028;-49
2022/07/28 05:39:51;;;;;;;0.85;0.35;;;;;;;13.09;100.00;101065.47;5084602;28;20028;-49
2022/07/28 05:42:16;;;;;;;2.13;0.32;;;;;;;13.18;100.00;101058.97;5080534;28;20035;-48
2022/07/28 05:44:42;;;;;;;1.95;0.85;;;;;;;13.28;100.00;101064.81;5080346;28;20034;-47
2022/07/28 05:47:07;;;;;;;0.90;0.10;;;;;;;13.36;100.00;101074.50;5081906;28;20023;-48
2022/07/28 05:49:32;;;;;;;0.68;0.00;;;;;;;13.44;100.00;101068.19;5087072;28;20111;-50
2022/07/28 05:51:58;;;;;;;1.55;0.10;;;;;;;13.55;100.00;101064.16;5081968;28;20111;-47
2022/07/28 05:54:23;;;;;;;1.65;0.10;;;;;;;13.67;100.00;101067.91;5081736;28;20085;-47
2022/07/28 05:56:49;;;;;;;1.35;1.00;;;;;;;13.83;100.00;101061.44;5084988;28;20024;-45
2022/07/28 05:59:15;;;;;;;0.40;0.00;;;;;;;13.93;100.00;101053.88;5086585;28;20162;-47
2022/07/28 06:01:40;;;;;;;2.00;0.20;;;;;;;14.02;100.00;101050.03;5080032;28;20783;-47
2022/07/28 06:04:06;;;;;;;3.70;1.55;;;;;;;14.13;100.00;101049.44;5084828;28;20028;-47
2022/07/28 06:06:31;;;;;;;2.08;0.20;;;;;;;14.23;100.00;101046.41;5078026;28;20039;-49
2022/07/28 06:08:56;;;;;;;1.27;0.00;;;;;;;14.35;100.00;101044.81;5083767;28;20350;-46
2022/07/28 06:11:22;;;;;;;1.15;0.13;;;;;;;14.47;100.00;101034.34;5076075;28;20024;-50
2022/07/28 06:13:48;;;;;;;7.50;1.33;;;;;;;14.57;100.00;101037.47;5082508;28;20032;-48
2022/07/28 06:16:13;;;;;;;1.65;0.00;;;;;;;14.67;100.00;101036.25;5085092;28;20063;-48
2022/07/28 06:18:39;;;;;;;4.72;0.98;;;;;;;14.78;100.00;101032.97;5077501;28;20036;-45
2022/07/28 06:21:05;;;;;;;3.35;0.15;;;;;;;14.85;100.00;101033.78;5077989;28;20066;-48
2022/07/28 06:23:30;;;;;;;1.38;0.70;;;;;;;14.92;100.00;101031.94;5078483;28;20044;-46
2022/07/28 06:25:55;;;;;;;0.70;0.32;;;;;;;15.02;100.00;101031.50;5079764;28;20024;-51
2022/07/28 06:28:20;;;;;;;3.25;0.55;;;;;;;15.09;100.00;101034.19;5082815;28;20031;-47
2022/07/28 06:30:47;;;;;;;3.67;0.20;;;;;;;15.17;100.00;101031.28;5081656;28;20028;-48
2022/07/28 06:33:14;;;;;;;1.83;0.90;;;;;;;15.28;100.00;101027.97;5082715;28;20043;-48
2022/07/28 06:35:39;;;;;;;4.25;0.32;;;;;;;15.39;100.00;101027.34;5084584;28;20058;-46
2022/07/28 06:38:04;;;;;;;3.47;1.27;;;;;;;15.51;100.00;101026.69;5085744;28;20024;-45
2022/07/28 06:40:30;;;;;;;3.92;0.85;;;;;;;15.61;100.00;101021.72;5085165;28;20035;-48
2022/07/28 06:42:55;;;;;;;0.30;0.10;;;;;;;15.70;100.00;101021.31;5083361;28;20051;-50
2022/07/28 06:45:21;;;;;;;0.22;0.00;;;;;;;15.80;100.00;101017.34;5089517;28;20028;-46
2022/07/28 06:47:47;;;;;;;3.92;0.73;;;;;;;15.85;100.00;101020.22;5087917;28;20332;-46
2022/07/28 06:50:12;;;;;;;1.17;0.20;;;;;;;15.91;100.00;101014.84;5086834;28;20024;-46
2022/07/28 06:52:38;;;;;;;0.80;0.30;;;;;;;16.02;100.00;101013.34;5085862;28;20111;-48
2022/07/28 06:55:07;;;;;;;1.27;0.93;;;;;;;16.06;100.00;101013.75;5080441;28;20044;-46
2022/07/28 06:57:33;;;;;;;2.38;0.00;;;;;;;16.11;100.00;101014.75;5084564;28;20048;-51
2022/07/28 06:59:59;;;;;;;2.42;1.08;;;;;;;16.19;100.00;101016.34;5079621;28;20078;-46
2022/07/28 07:02:24;;;;;;;3.85;0.50;;;;;;;16.25;100.00;101012.00;5084289;28;20039;-49
2022/07/28 07:04:50;;;;;;;2.72;0.80;;;;;;;16.28;100.00;101012.38;5083493;28;20040;-50
2022/07/28 07:07:16;;;;;;;1.45;0.10;;;;;;;16.35;100.00;100996.28;5085983;28;20306;-46
2022/07/28 07:09:41;;;;;;;3.22;0.22;;;;;;;16.44;100.00;101003.00;5080054;28;20028;-49
2022/07/28 07:12:07;;;;;;;3.33;0.20;;;;;;;16.54;100.00;101000.66;5081841;28;20515;-48
2022/07/28 07:14:32;;;;;;;1.10;0.10;;;;;;;16.63;100.00;101001.22;5082863;28;20021;-48
2022/07/28 07:16:57;;;;;;;1.10;0.30;;;;;;;16.67;100.00;101005.09;5082040;28;20039;-49
2022/07/28 07:19:23;;;;;;;2.05;0.32;;;;;;;16.75;100.00;100999.47;5080128;28;20024;-49
2022/07/28 07:21:49;;;;;;;1.58;0.25;;;;;;;16.82;100.00;100999.44;5085301;28;20119;-48
2022/07/28 07:24:14;;;;;;;2.17;0.38;;;;;;;16.87;100.00;100998.78;5084915;28;20473;-47
2022/07/28 07:26:40;;;;;;;10.50;0.30;;;;;;;16.93;100.00;101000.56;5088067;28;20040;-48
2022/07/28 07:29:06;;;;;;;4.97;0.20;;;;;;;16.98;100.00;101001.53;5088228;28;20135;-49
2022/07/28 07:31:35;;;;;;;5.63;0.20;;;;;;;17.05;100.00;100996.13;5083128;28;20028;-44
2022/07/28 07:34:02;;;;;;;0.60;0.28;;;;;;;17.10;100.00;100992.81;5086568;28;20481;-49
2022/07/28 07:36:27;;;;;;;4.13;0.57;;;;;;;17.15;100.00;100993.78;5085028;28;20032;-50
2022/07/28 07:38:52;;;;;;;4.03;0.50;;;;;;;17.20;100.00;100993.91;5085372;28;20020;-51
2022/07/28 07:41:18;;;;;;;1.15;0.20;;;;;;;17.25;100.00;100990.59;5083120;28;20058;-45
2022/07/28 07:43:46;;;;;;;10.13;0.82;;;;;;;17.35;100.00;100979.34;5086745;28;20085;-48
2022/07/28 07:46:12;;;;;;;0.88;0.17;;;;;;;17.51;100.00;100994.81;5081931;28;20032;-47
2022/07/28 07:48:38;;;;;;;2.63;0.30;;;;;;;17.62;100.00;100986.00;5085962;28;20032;-49
2022/07/28 07:51:04;;;;;;;1.92;0.30;;;;;;;17.68;100.00;100978.94;5085309;28;20038;-48
2022/07/28 07:53:29;;;;;;;4.78;0.98;;;;;;;17.71;100.00;100978.50;5083436;28;20036;-52
2022/07/28 07:55:55;;;;;;;2.05;0.55;;;;;;;17.82;100.00;100980.44;5085496;28;20082;-45
2022/07/28 07:58:21;;;;;;;1.45;0.40;;;;;;;17.99;100.00;100972.59;5084069;28;20030;-47
2022/07/28 08:00:46;;;;;;;2.20;1.35;;;;;;;18.14;100.00;100974.81;5087714;28;20055;-49
2022/07/28 08:03:14;;;;;;;2.97;0.22;;;;;;;18.25;100.00;100967.84;5081260;28;20460;-48
2022/07/28 08:05:39;;;;;;;0.85;0.30;;;;;;;18.29;100.00;100969.84;5087451;28;20035;-47
2022/07/28 08:08:05;;;;;;;2.20;0.63;;;;;;;18.35;100.00;100964.59;5081689;28;20472;-47
2022/07/28 08:10:32;;;;;;;2.15;0.20;;;;;;;18.45;100.00;100962.19;5085842;28;20104;-51
2022/07/28 08:12:57;;;;;;;1.08;0.30;;;;;;;18.57;100.00;100959.50;5081745;28;20026;-47
2022/07/28 08:15:22;;;;;;;6.80;0.82;;;;;;;18.73;100.00;100958.81;5084602;28;20028;-50
2022/07/28 08:17:48;;;;;;;3.33;0.20;;;;;;;18.94;100.00;100960.94;5083217;28;20036;-49
2022/07/28 08:20:13;;;;;;;1.88;0.40;;;;;;;19.11;100.00;100963.72;5077272;28;20074;-49
2022/07/28 08:22:55;;;;;;;1.95;0.60;;;;;;;19.25;100.00;100953.53;5077195;28;20109;-52
2022/07/28 08:25:22;;;;;;;3.30;0.70;;;;;;;19.29;100.00;100968.16;5086250;28;20027;-52
2022/07/28 08:27:48;;;;;;;4.47;0.50;;;;;;;19.38;100.00;100964.00;5083151;28;20032;-53
2022/07/28 08:30:15;;;;;;;1.58;0.43;;;;;;;19.48;100.00;100954.53;5080259;28;20032;-51
2022/07/28 08:32:41;;;;;;;1.13;0.30;;;;;;;19.51;100.00;100960.25;5077796;28;20479;-53
2022/07/28 08:35:07;;;;;;;6.65;1.67;;;;;;;19.70;100.00;100958.25;5077192;28;20024;-49
2022/07/28 08:37:33;;;;;;;2.70;0.30;;;;;;;19.89;100.00;100953.47;5076821;28;20028;-51
2022/07/28 08:39:58;;;;;;;3.78;0.28;;;;;;;19.98;100.00;100962.81;5073397;28;20488;-48
2022/07/28 08:42:42;;;;;;;6.22;1.17;;;;;;;19.94;100.00;100948.19;5081429;28;20028;-50
2022/07/28 08:45:10;;;;;;;2.58;0.32;;;;;;;20.01;100.00;100959.63;5079352;28;20455;-52
2022/07/28 08:47:37;;;;;;;1.33;0.65;;;;;;;20.02;100.00;100945.09;5075700;28;21056;-55
2022/07/28 08:50:03;;;;;;;4.28;0.40;;;;;;;20.00;100.00;100941.00;5083786;28;20032;-53
2022/07/28 08:52:31;;;;;;;3.38;0.28;;;;;;;20.04;100.00;100951.06;5076374;28;20040;-53
2022/07/28 08:54:59;;;;;;;2.58;0.60;;;;;;;20.03;100.00;100944.06;5075770;28;20024;-49
2022/07/28 08:57:29;;;;;;;1.63;0.90;;;;;;;19.94;100.00;100942.00;5062854;28;20032;-51
2022/07/28 08:59:55;;;;;;;2.25;0.10;;;;;;;20.10;100.00;100930.41;5068204;28;20021;-50
2022/07/28 09:02:22;;;;;;;0.10;0.03;;;;;;;20.27;100.00;100931.25;5073153;28;20024;-49
2022/07/28 09:04:48;;;;;;;1.60;0.30;;;;;;;20.54;100.00;100930.63;5074427;28;20277;-49
2022/07/28 09:07:13;;;;;;;1.27;0.25;;;;;;;20.68;100.00;100936.50;5070922;28;20032;-47
2022/07/28 09:09:39;;;;;;;1.30;0.10;;;;;;;20.83;100.00;100935.88;5068626;28;20115;-50
2022/07/28 09:12:05;;;;;;;2.67;0.13;;;;;;;20.85;100.00;100923.78;5078835;28;20400;-51
2022/07/28 09:14:31;;;;;;;0.65;0.10;;;;;;;21.05;100.00;100923.25;5080592;28;20063;-46
2022/07/28 09:17:00;;;;;;;5.00;1.15;;;;;;;21.41;100.00;100917.53;5079618;28;20028;-48
2022/07/28 09:19:25;;;;;;;2.08;0.13;;;;;;;21.54;100.00;100920.63;5081646;28;20027;-57
2022/07/28 09:21:50;;;;;;;4.38;0.08;;;;;;;21.85;100.00;100922.84;5082273;28;20028;-52
2022/07/28 09:24:38;;;;;;;1.88;0.20;;;;;;;22.12;100.00;100917.41;5074087;28;20085;-56
2022/07/28 09:27:06;;;;;;;2.15;0.20;;;;;;;22.20;100.00;100909.69;5084384;28;20157;-53
2022/07/28 09:29:33;;;;;;;2.92;0.40;;;;;;;22.04;96.90;100910.56;5075489;28;20032;-47
2022/07/28 09:31:58;;;;;;;3.45;0.22;;;;;;;22.05;100.00;100919.53;5075589;28;20097;-54
2022/07/28 09:34:24;;;;;;;0.55;0.03;;;;;;;22.19;100.00;100916.13;5078313;28;20446;-58
2022/07/28 09:36:50;;;;;;;0.73;0.25;;;;;;;22.23;100.00;100902.13;5083708;28;20035;-57
2022/07/28 09:39:35;;;;;;;1.85;0.68;;;;;;;22.33;97.39;100919.25;5075008;28;20392;-47
2022/07/28 09:42:01;;;;;;;2.28;0.28;;;;;;;22.53;99.29;100910.44;5080463;28;20047;-51
2022/07/28 09:44:28;;;;;;;1.80;0.40;;;;;;;22.81;97.96;100911.97;5085844;28;20043;-49
2022/07/28 09:46:54;;;;;;;2.67;0.77;;;;;;;22.98;96.38;100919.13;5086977;28;20032;-54
2022/07/28 09:49:20;;;;;;;2.10;0.30;;;;;;;23.05;96.36;100908.88;5078944;28;20039;-53
2022/07/28 09:52:05;;;;;;;3.22;0.35;;;;;;;22.93;86.94;100911.78;5088000;28;20027;-56
2022/07/28 09:54:31;;;;;;;0.20;0.10;;;;;;;22.97;91.81;100920.19;5080842;28;20051;-49
2022/07/28 09:56:57;;;;;;;3.42;0.38;;;;;;;22.97;89.52;100912.06;5082140;28;20044;-51
2022/07/28 09:59:22;;;;;;;1.40;0.00;;;;;;;22.80;88.53;100907.66;5078828;28;20100;-50
2022/07/28 10:01:59;;;;;;;0.57;0.20;;;;;;;22.94;86.67;100904.47;5084424;28;20024;-46
2022/07/28 10:04:30;;;;;;;1.75;0.68;;;;;;;22.96;88.74;100902.31;5072326;28;20035;-55
2022/07/28 10:07:16;;;;;;;1.85;0.20;;;;;;;22.91;89.27;100913.09;5072319;28;20028;-50
2022/07/28 10:09:42;;;;;;;0.10;0.10;;;;;;;22.73;85.87;100907.06;5078786;28;20541;-48
2022/07/28 10:12:23;;;;;;;3.90;0.20;;;;;;;22.90;84.51;100914.16;5088788;28;20032;-52
2022/07/28 10:14:50;;;;;;;3.08;0.10;;;;;;;22.98;81.63;100908.31;5085435;28;20030;-50
2022/07/28 10:17:33;;;;;;;1.40;0.22;;;;;;;23.20;83.85;100911.63;5081064;28;20040;-48
2022/07/28 10:20:01;;;;;;;1.25;0.38;;;;;;;23.58;85.26;100912.28;5083580;28;20131;-47
2022/07/28 10:22:31;;;;;;;3.00;0.20;;;;;;;23.89;84.66;100906.97;5085122;28;20036;-53
2022/07/28 10:24:59;;;;;;;16.70;1.30;;;;;;;23.90;85.01;100909.38;5080502;28;20044;-53
2022/07/28 10:27:25;;;;;;;6.40;0.77;;;;;;;24.00;84.63;100902.38;5083610;28;20039;-55
2022/07/28 10:29:58;;;;;;;0.68;0.30;;;;;;;24.05;78.67;100905.88;5080815;28;20075;-51
2022/07/28 10:32:25;;;;;;;0.35;0.00;;;;;;;23.91;77.69;100911.03;5082124;28;20171;-48
2022/07/28 10:35:04;;;;;;;1.88;0.28;;;;;;;23.72;79.03;100907.19;5082490;28;20276;-52
2022/07/28 10:37:36;;;;;;;0.95;0.13;;;;;;;23.95;79.37;100912.09;5084956;28;20032;-50
2022/07/28 10:40:07;;;;;;;1.23;0.10;;;;;;;24.12;78.32;100906.44;5083729;28;20496;-51
2022/07/28 10:42:34;;;;;;;3.70;0.20;;;;;;;24.14;78.22;100901.56;5088073;28;20038;-50
2022/07/28 10:45:01;;;;;;;0.90;0.20;;;;;;;24.08;78.43;100897.22;5087590;28;20051;-46
2022/07/28 10:47:27;;;;;;;17.25;1.75;;;;;;;23.99;79.22;100893.44;5085215;28;20073;-53
2022/07/28 10:49:53;;;;;;;2.10;0.20;;;;;;;23.99;79.57;100901.56;5083668;28;20115;-52
2022/07/28 10:52:19;;;;;;;9.73;1.10;;;;;;;23.85;79.64;100900.44;5087888;28;20186;-54
2022/07/28 10:55:00;;;;;;;2.10;0.75;;;;;;;23.94;80.97;100904.25;5084615;28;20134;-52
2022/07/28 10:57:29;;;;;;;1.83;0.25;;;;;;;23.92;80.97;100903.72;5083446;28;20469;-56
2022/07/28 11:00:08;;;;;;;2.72;0.15;;;;;;;23.94;76.15;100899.66;5087312;28;20028;-51
2022/07/28 11:03:00;;;;;;;2.15;0.38;;;;;;;23.67;77.05;100896.34;5081232;28;20047;-55
2022/07/28 11:05:35;;;;;;;0.35;0.28;;;;;;;23.86;78.90;100900.19;5081639;28;20031;-51
2022/07/28 11:08:06;;;;;;;1.88;0.17;;;;;;;23.94;78.09;100898.84;5090616;28;20123;-47
2022/07/28 11:10:57;;;;;;;;;;;;;;;23.94;72.47;100896.94;5091266;28;20085;-50
2022/07/28 11:13:22;;;;;;;0.90;0.25;;;;;;;24.43;77.47;100897.47;5082004;28;19916;-51
2022/07/28 11:15:48;;;;;;;1.17;0.82;;;;;;;24.62;76.37;100897.72;5085679;28;20036;-46
2022/07/28 11:18:13;;;;;;;1.05;0.10;;;;;;;24.47;75.17;100890.44;5089759;28;20074;-51
2022/07/28 11:20:57;;;;;;;5.28;0.55;;;;;;;24.67;72.87;100895.81;5074974;28;20069;-49
2022/07/28 11:23:45;;;;;;;1.65;0.20;;;;;;;24.39;73.41;100891.78;5089475;28;20480;-54